Weather History for KMNM - May, 2014

Change the Weather History Date:

Monday, May 12, 2014

  Actual Average Record
Temperature  
Mean Temperature 46 °F -  
Max Temperature 50 °F 67 °F 83 °F (1991)
Min Temperature 42 °F 42 °F 28 °F (2013)
Degree Days  
Heating Degree Days 19    
Moisture  
Dew Point 43 °F    
Average Humidity 88    
Maximum Humidity 100    
Minimum Humidity 66    
Precipitation  
Precipitation 0.52 in - - ()
Sea Level Pressure  
Sea Level Pressure 29.88 in    
Wind  
Wind Speed 6 mph (ENE)    
Max Wind Speed 18 mph    
Max Gust Speed 22 mph    
Visibility 4 miles    
Events Thunderstorm    
Averages and records for this station are not official NWS values.
T = Trace of Precipitation, MM = Missing Value Source: NWS Daily Summary

Daily Weather History Graph

Daily Weather History Graph

Search for Another Location

Airport or City:

Trip Planner

Search our weather history database for the weather conditions in past years. The results will help you decide how hot, cold, wet, or windy it might be!

Date:

Astronomy

May. 12, 2014 Rise Set
Actual Time 5:24 AM CDT 8:09 PM CDT
Civil Twilight 4:50 AM CDT 8:43 PM CDT
Nautical Twilight 4:07 AM CDT 9:27 PM CDT
Astronomical Twilight 3:18 AM CDT 10:17 PM CDT
Moon 6:01 PM CDT (5/12) 4:10 AM CDT (5/12)
Length of Visible Light 15h 53m
Length of Day
14h 45m
Waxing Gibbous, 95% of the Moon is Illuminated
May 12
Waxing Gibbous
May 14
Full
May 21
Last Quarter
May 28
New
Jun 5
First Quarter

Hourly Weather History & Observations

Time (CDT) Temp. Windchill Dew Point Humidity Pressure Visibility Wind Dir Wind Speed Gust Speed Precip Events Conditions
12:15 AM 48.2 °F - 39.2 °F 71% 29.96 in 10.0 mi NE 4.6 mph - N/A   Scattered Clouds
12:35 AM 48.2 °F - 39.2 °F 71% 29.94 in 10.0 mi ENE 5.8 mph - N/A   Clear
12:55 AM 48.2 °F - 39.2 °F 71% 29.93 in 10.0 mi ENE 3.5 mph - N/A   Clear
1:15 AM 48.2 °F - 39.2 °F 71% 29.92 in 10.0 mi Calm Calm - N/A   Clear
1:35 AM 50.0 °F - 39.2 °F 66% 29.93 in 10.0 mi East 3.5 mph - N/A   Clear
1:55 AM 50.0 °F - 39.2 °F 66% 29.93 in 10.0 mi Calm Calm - N/A   Scattered Clouds
2:15 AM 50.0 °F - 39.2 °F 66% 29.93 in 10.0 mi ENE 5.8 mph - N/A   Mostly Cloudy
2:35 AM 48.2 °F - 39.2 °F 71% 29.92 in 10.0 mi ENE 5.8 mph - N/A   Overcast
2:55 AM 48.2 °F - 41.0 °F 76% 29.91 in 10.0 mi ENE 3.5 mph - N/A   Scattered Clouds
3:15 AM 50.0 °F - 39.2 °F 66% 29.90 in 10.0 mi ENE 6.9 mph - N/A   Mostly Cloudy
3:35 AM 50.0 °F - 39.2 °F 66% 29.90 in 10.0 mi ENE 5.8 mph - N/A   Overcast
3:55 AM 48.2 °F - 39.2 °F 71% 29.91 in 10.0 mi ENE 9.2 mph - N/A   Overcast
4:15 AM 48.2 °F - 37.4 °F 66% 29.91 in 10.0 mi East 6.9 mph - N/A   Overcast
4:35 AM 48.2 °F - 37.4 °F 66% 29.90 in 10.0 mi East 6.9 mph - N/A   Overcast
4:55 AM 46.4 °F 42.4 °F 39.2 °F 76% 29.90 in 10.0 mi ENE 8.1 mph - N/A   Mostly Cloudy
5:15 AM 46.4 °F - 41.0 °F 81% 29.94 in 10.0 mi Calm Calm - 0.01 in   Overcast
5:35 AM 46.4 °F - 42.8 °F 87% 29.94 in 7.0 mi Calm Calm - 0.07 in Thunderstorm Overcast
5:55 AM 46.4 °F - 42.8 °F 87% 29.94 in 9.0 mi Calm Calm - 0.16 in Thunderstorm Overcast
6:15 AM 46.4 °F 45.2 °F 44.6 °F 93% 29.95 in 3.0 mi ENE 3.5 mph - 0.13 in   Overcast
6:35 AM 46.4 °F 42.9 °F 44.6 °F 93% 29.93 in 5.0 mi East 6.9 mph - 0.24 in   Overcast
6:55 AM 46.4 °F 40.1 °F 42.8 °F 87% 29.90 in 7.0 mi East 15.0 mph - 0.31 in   Overcast
7:15 AM 44.6 °F 36.9 °F 42.8 °F 93% 29.86 in 9.0 mi East 18.4 mph - 0.02 in   Overcast
7:35 AM 44.6 °F 38.1 °F 41.0 °F 87% 29.85 in 9.0 mi East 13.8 mph 17.3 mph 0.03 in   Overcast
7:55 AM 44.6 °F 37.8 °F 42.8 °F 93% 29.81 in 8.0 mi ENE 15.0 mph - 0.03 in   Overcast
8:15 AM 46.4 °F 41.5 °F 42.8 °F 87% 29.83 in 8.0 mi East 10.4 mph - N/A   Overcast
8:35 AM 46.4 °F 41.9 °F 44.6 °F 93% 29.85 in 7.0 mi NE 9.2 mph - N/A   Overcast
9:15 AM 48.2 °F - 46.4 °F 93% 29.87 in 5.0 mi North 8.1 mph - N/A   Overcast
9:35 AM 48.2 °F - 46.4 °F 93% 29.87 in 5.0 mi NE 8.1 mph - N/A   Overcast
9:55 AM 48.2 °F - 46.4 °F 93% 29.88 in 3.0 mi NE 6.9 mph - N/A   Overcast
10:15 AM 48.2 °F - 44.6 °F 87% 29.89 in 3.0 mi NE 8.1 mph - N/A   Overcast
10:35 AM 46.4 °F 41.9 °F 46.4 °F 100% 29.90 in 0.8 mi NE 9.2 mph - N/A   Overcast
10:55 AM 46.4 °F 43.5 °F 44.6 °F 93% 29.90 in 0.5 mi ENE 5.8 mph - N/A   Overcast
11:15 AM 46.4 °F 44.3 °F 44.6 °F 93% 29.90 in 0.5 mi ENE 4.6 mph - N/A   Overcast
11:35 AM 46.4 °F 42.9 °F 44.6 °F 93% 29.91 in 0.8 mi NE 6.9 mph - N/A   Overcast
11:55 AM 46.4 °F 43.5 °F 44.6 °F 93% 29.91 in 1.0 mi NNE 5.8 mph - N/A   Overcast
12:15 PM 46.4 °F - 44.6 °F 93% 29.93 in 1.0 mi Calm Calm - N/A   Overcast
12:35 PM 46.4 °F - 44.6 °F 93% 29.93 in 1.0 mi Calm Calm - N/A   Overcast
12:55 PM 46.4 °F 42.4 °F 44.6 °F 93% 29.90 in 0.8 mi East 8.1 mph - N/A   Overcast
1:15 PM 46.4 °F 40.4 °F 42.8 °F 87% 29.81 in 0.2 mi NE 13.8 mph - 0.01 in   Overcast
1:35 PM 46.4 °F 45.2 °F 44.6 °F 93% 29.82 in 0.8 mi NE 3.5 mph - 0.02 in   Overcast
1:55 PM 46.4 °F 42.4 °F 46.4 °F 100% 29.83 in 1.0 mi ESE 8.1 mph - 0.02 in   Overcast
2:35 PM 46.4 °F 41.1 °F 44.6 °F 93% 29.82 in 0.2 mi ENE 11.5 mph - N/A   Overcast
2:55 PM 46.4 °F 42.4 °F 44.6 °F 93% 29.83 in 0.2 mi NNE 8.1 mph - N/A   Overcast
3:15 PM 46.4 °F 41.1 °F 44.6 °F 93% 29.84 in 0.2 mi North 11.5 mph - N/A   Overcast
3:35 PM 46.4 °F 41.9 °F 44.6 °F 93% 29.85 in 0.2 mi North 9.2 mph - N/A   Overcast
3:55 PM 46.4 °F 42.9 °F 44.6 °F 93% 29.88 in 0.5 mi North 6.9 mph - N/A   Overcast
4:15 PM 46.4 °F 41.9 °F 44.6 °F 93% 29.86 in 0.5 mi North 9.2 mph - N/A   Overcast
4:35 PM 46.4 °F 42.4 °F 44.6 °F 93% 29.85 in 0.2 mi North 8.1 mph - N/A   Overcast
4:55 PM 46.4 °F 44.3 °F 44.6 °F 93% 29.85 in 0.5 mi NNE 4.6 mph - N/A   Overcast
5:15 PM 46.4 °F 43.5 °F 46.4 °F 100% 29.86 in 0.5 mi NE 5.8 mph - N/A   Overcast
5:35 PM 48.2 °F - 46.4 °F 93% 29.85 in 0.8 mi NNE 6.9 mph - N/A   Overcast
5:55 PM 48.2 °F - 46.4 °F 93% 29.84 in 1.2 mi NNE 8.1 mph - N/A   Overcast
6:15 PM 48.2 °F - 46.4 °F 93% 29.85 in 1.8 mi NE 4.6 mph - N/A   Overcast
6:35 PM 48.2 °F - 46.4 °F 93% 29.85 in 1.5 mi East 3.5 mph - N/A   Overcast
6:55 PM 44.6 °F 38.8 °F 42.8 °F 93% 29.85 in 1.2 mi East 11.5 mph - N/A   Overcast
7:15 PM 44.6 °F 40.7 °F 42.8 °F 93% 29.86 in 1.0 mi East 6.9 mph - N/A   Overcast
7:35 PM 44.6 °F 40.2 °F 44.6 °F 100% 29.86 in 1.0 mi East 8.1 mph - N/A   Overcast
7:55 PM 44.6 °F 37.4 °F 42.8 °F 93% 29.86 in 0.2 mi ENE 16.1 mph 21.9 mph N/A   Overcast
8:15 PM 42.8 °F 35.8 °F 41.0 °F 93% 29.87 in 0.2 mi ENE 13.8 mph - N/A   Overcast
8:35 PM 44.6 °F 39.7 °F 42.8 °F 93% 29.87 in 0.8 mi ENE 9.2 mph - N/A   Overcast
8:55 PM 42.8 °F 36.2 °F 42.8 °F 100% 29.87 in 1.5 mi East 12.7 mph - N/A   Overcast
9:15 PM 42.8 °F 36.2 °F 41.0 °F 93% 29.86 in 1.0 mi ENE 12.7 mph - N/A   Overcast
9:35 PM 42.8 °F 37.0 °F 41.0 °F 93% 29.84 in 1.0 mi ENE 10.4 mph - N/A   Overcast
9:55 PM 42.8 °F 38.0 °F 41.0 °F 93% 29.81 in 0.8 mi NNE 8.1 mph - N/A   Overcast
10:15 PM 42.8 °F 39.3 °F 41.0 °F 93% 29.83 in 0.5 mi NE 5.8 mph - N/A   Overcast
10:35 PM 44.6 °F 42.2 °F 42.8 °F 93% 29.84 in 0.5 mi ENE 4.6 mph - N/A   Overcast
10:55 PM 44.6 °F 41.4 °F 42.8 °F 93% 29.84 in 0.5 mi North 5.8 mph - N/A   Overcast
11:15 PM 44.6 °F 40.7 °F 42.8 °F 93% 29.83 in 1.0 mi East 6.9 mph - N/A   Overcast
11:35 PM 44.6 °F 42.2 °F 42.8 °F 93% 29.83 in 2.5 mi East 4.6 mph - N/A   Overcast
11:55 PM 42.8 °F 37.0 °F 42.8 °F 100% 29.83 in 1.8 mi East 10.4 mph - N/A   Overcast